Terminal Aerodrome Forecast
Issued by NWS

Home | Current Version | Previous Version | Graphics & Text | Print | Product List | Glossary On
Versions: 1 2 3 4 5 6 7 8 9 10 11 12 13 14 15 16 17
000
FTUS43 KICT 231922 AAA
TAFSLN
TAF AMD
KSLN 231922Z 2319/2418 08014G20KT P6SM SCT100
     FM240000 02015G22KT P6SM VCTS OVC040CB
     FM240300 33018G26KT P6SM VCSH OVC025=

USA.gov is the U.S. government's official web portal to all federal, state and local government web resources and services.